createdAt,value
2019-04-06T00:03:52.031Z,56.30
2019-04-06T00:08:55.326Z,56.10
2019-04-06T00:13:59.155Z,56.10
2019-04-06T00:19:02.991Z,56.20
2019-04-06T00:24:06.810Z,56.10
2019-04-06T00:29:10.955Z,56.10
2019-04-06T00:34:15.393Z,56.00
2019-04-06T00:39:19.521Z,56.10
2019-04-06T00:44:23.362Z,56.20
2019-04-06T00:49:27.182Z,56.30
2019-04-06T00:54:31.312Z,56.50
2019-04-06T00:59:35.161Z,56.70
2019-04-06T01:04:39.280Z,56.90
2019-04-06T01:09:43.110Z,57.00
2019-04-06T01:14:46.936Z,57.00
2019-04-06T01:19:51.070Z,56.80
2019-04-06T01:24:54.897Z,56.70
2019-04-06T01:29:59.036Z,56.50
2019-04-06T01:35:02.870Z,56.40
2019-04-06T01:40:07.620Z,56.10
2019-04-06T01:45:11.436Z,56.00
2019-04-06T01:50:15.262Z,55.80
2019-04-06T01:55:19.093Z,55.70
2019-04-06T02:00:22.917Z,55.60
2019-04-06T02:05:27.056Z,55.50
2019-04-06T02:10:30.881Z,55.50
2019-04-06T02:15:34.706Z,55.50
2019-04-06T02:20:38.539Z,55.40
2019-04-06T02:25:42.685Z,55.40
2019-04-06T02:31:03.395Z,55.20
2019-04-06T02:36:21.056Z,55.20
2019-04-06T02:41:43.093Z,55.30
2019-04-06T02:46:47.135Z,55.20
2019-04-06T02:51:51.275Z,55.40
2019-04-06T02:56:55.097Z,55.40
2019-04-06T03:01:58.926Z,55.90
2019-04-06T03:07:02.755Z,56.40
2019-04-06T03:12:06.583Z,56.10
2019-04-06T03:17:10.723Z,55.60
2019-04-06T03:22:14.855Z,55.60
2019-04-06T03:27:18.778Z,55.50
2019-04-06T03:32:22.819Z,56.10
2019-04-06T03:37:26.639Z,56.40
2019-04-06T03:42:30.466Z,56.70
2019-04-06T03:47:34.302Z,56.80
2019-04-06T03:52:38.432Z,56.70
2019-04-06T03:57:42.566Z,56.50
2019-04-06T04:02:46.401Z,56.40
2019-04-06T04:07:50.220Z,56.40
2019-04-06T04:12:54.355Z,56.50
2019-04-06T04:17:58.188Z,56.40
2019-04-06T04:23:02.046Z,56.70
2019-04-06T04:28:06.155Z,56.60
2019-04-06T04:33:09.976Z,56.60
2019-04-06T04:38:13.809Z,57.00
2019-04-06T04:43:17.943Z,56.70
2019-04-06T04:48:21.763Z,57.00
2019-04-06T04:53:25.594Z,56.80
2019-04-06T04:58:29.426Z,56.70
2019-04-06T05:03:33.455Z,56.70
2019-04-06T05:08:37.387Z,57.20
2019-04-06T05:13:41.268Z,58.40
2019-04-06T05:18:45.349Z,59.30
2019-04-06T05:23:50.744Z,60.10
2019-04-06T05:28:54.536Z,60.00
2019-04-06T05:33:58.472Z,61.20
2019-04-06T05:39:02.521Z,62.90
2019-04-06T05:44:06.641Z,63.30
2019-04-06T05:49:10.460Z,62.80
2019-04-06T05:54:14.361Z,62.80
2019-04-06T05:59:18.424Z,62.80
2019-04-06T06:04:22.254Z,62.80
2019-04-06T06:09:26.084Z,62.80
2019-04-06T06:14:29.908Z,62.30
2019-04-06T06:19:33.905Z,62.10
2019-04-06T06:24:37.868Z,61.70
2019-04-06T06:29:41.696Z,61.80
2019-04-06T06:34:45.525Z,62.90
2019-04-06T06:39:49.357Z,63.20
2019-04-06T06:44:53.491Z,62.90
2019-04-06T06:49:57.626Z,62.60
2019-04-06T06:55:01.358Z,62.30
2019-04-06T07:00:05.987Z,62.80
2019-04-06T07:05:09.704Z,61.90
2019-04-06T07:10:13.447Z,61.30
2019-04-06T07:15:17.126Z,60.70
2019-04-06T07:20:20.872Z,61.20
2019-04-06T07:25:24.815Z,61.30
2019-04-06T07:30:28.653Z,61.00
2019-04-06T07:35:32.615Z,60.40
2019-04-06T07:40:36.347Z,60.10
2019-04-06T07:45:40.115Z,61.20
2019-04-06T07:50:43.889Z,61.50
2019-04-06T07:55:47.577Z,61.30
2019-04-06T08:00:51.353Z,61.60
2019-04-06T08:05:55.438Z,62.10
2019-04-06T08:10:59.317Z,62.10
2019-04-06T08:16:03.376Z,62.60
2019-04-06T08:21:07.446Z,63.70
2019-04-06T08:26:11.275Z,62.90
2019-04-06T08:31:15.141Z,62.70
2019-04-06T08:36:19.011Z,62.60
2019-04-06T08:41:23.083Z,60.90
2019-04-06T08:46:26.819Z,58.90
2019-04-06T08:51:30.520Z,57.90
2019-04-06T08:56:34.547Z,56.40
2019-04-06T09:01:38.369Z,55.40
2019-04-06T09:06:42.197Z,55.00
2019-04-06T09:11:46.070Z,54.10
2019-04-06T09:16:50.473Z,52.60
2019-04-06T09:21:54.350Z,51.60
2019-04-06T09:26:58.437Z,50.40
2019-04-06T09:32:02.260Z,49.80
2019-04-06T09:37:06.399Z,48.90
2019-04-06T09:42:10.234Z,48.50
2019-04-06T09:47:15.684Z,49.20
2019-04-06T09:52:37.393Z,49.80
2019-04-06T09:57:48.748Z,50.40
2019-04-06T10:02:54.105Z,51.20
2019-04-06T10:08:05.580Z,51.10
2019-04-06T10:13:16.812Z,50.70
2019-04-06T10:18:34.167Z,50.50
2019-04-06T10:23:39.524Z,50.00
2019-04-06T10:28:51.063Z,49.00
2019-04-06T10:34:08.944Z,48.20
2019-04-06T10:39:20.274Z,48.20
2019-04-06T10:44:37.844Z,47.70
2019-04-06T10:49:49.396Z,48.20
2019-04-06T10:55:04.238Z,47.40
2019-04-06T11:00:25.479Z,47.70
2019-04-06T11:05:42.506Z,48.70
2019-04-06T11:10:51.107Z,49.50
2019-04-06T11:15:56.728Z,49.40
2019-04-06T11:21:18.060Z,49.40
2019-04-06T11:26:26.500Z,50.20
2019-04-06T11:31:37.979Z,50.40
2019-04-06T11:36:59.650Z,50.40
2019-04-06T11:42:05.204Z,51.00
2019-04-06T11:47:13.779Z,52.30
2019-04-06T11:52:31.141Z,53.20
2019-04-06T11:57:42.299Z,54.30
2019-04-06T12:02:50.132Z,55.10
2019-04-06T12:07:55.486Z,56.70
2019-04-06T12:13:06.684Z,57.30
2019-04-06T12:18:12.359Z,57.80
2019-04-06T12:23:36.115Z,58.10
2019-04-06T12:28:41.827Z,58.70
2019-04-06T12:33:53.335Z,58.70
2019-04-06T12:39:14.121Z,59.30
2019-04-06T12:44:37.851Z,60.10
2019-04-06T12:49:46.592Z,61.70
2019-04-06T12:54:54.640Z,63.50
2019-04-06T13:00:06.187Z,64.20
2019-04-06T13:05:20.510Z,64.90
2019-04-06T13:10:25.871Z,64.50
2019-04-06T13:15:36.760Z,65.10
2019-04-06T13:20:58.779Z,67.60
2019-04-06T13:26:07.062Z,67.60
2019-04-06T13:31:21.322Z,68.30
2019-04-06T13:36:32.936Z,70.10
2019-04-06T13:41:50.273Z,82.60
2019-04-06T13:47:12.548Z,82.90
2019-04-06T13:52:18.521Z,84.80
2019-04-06T13:57:27.236Z,88.70
2019-04-06T14:02:38.465Z,90.10
2019-04-06T14:07:59.184Z,90.10
2019-04-06T14:13:16.923Z,88.70
2019-04-06T14:18:38.789Z,90.00
2019-04-06T14:23:50.819Z,89.00
2019-04-06T14:29:05.492Z,85.50
2019-04-06T14:34:27.278Z,87.60
2019-04-06T14:39:48.626Z,85.30
2019-04-06T14:44:59.708Z,86.50
2019-04-06T14:50:07.521Z,86.70
2019-04-06T14:55:24.576Z,86.40
2019-04-06T15:00:29.857Z,85.70
2019-04-06T15:05:52.424Z,84.90
2019-04-06T15:10:59.815Z,83.10
2019-04-06T15:16:05.085Z,83.10
2019-04-06T15:21:13.358Z,82.30
2019-04-06T15:26:18.663Z,83.40
2019-04-06T15:31:24.544Z,83.90
2019-04-06T15:36:33.269Z,82.10
2019-04-06T15:41:54.750Z,81.70
2019-04-06T15:47:03.323Z,81.70
2019-04-06T15:52:12.559Z,81.80
2019-04-06T15:57:18.547Z,81.80
2019-04-06T16:02:38.974Z,80.80
2019-04-06T16:08:00.766Z,81.20
2019-04-06T16:13:21.333Z,81.00
2019-04-06T16:18:43.686Z,81.80
2019-04-06T16:24:01.711Z,81.90
2019-04-06T16:29:04.617Z,81.10
2019-04-06T16:34:09.937Z,82.30
2019-04-06T16:39:18.404Z,82.80
2019-04-06T16:44:29.408Z,82.80
2019-04-06T16:49:46.946Z,82.90
2019-04-06T16:55:01.258Z,83.20
2019-04-06T17:00:18.496Z,82.90
2019-04-06T17:05:23.829Z,82.90
2019-04-06T17:10:29.186Z,83.20
2019-04-06T17:15:43.627Z,82.90
2019-04-06T17:20:51.995Z,82.90
2019-04-06T17:26:09.937Z,82.90
2019-04-06T17:31:33.432Z,82.40
2019-04-06T17:36:39.101Z,82.20
2019-04-06T17:42:00.525Z,82.30
2019-04-06T17:47:22.102Z,82.30
2019-04-06T17:52:43.989Z,82.80
2019-04-06T17:58:01.455Z,83.10
2019-04-06T18:03:07.032Z,82.90
2019-04-06T18:08:12.416Z,82.60
2019-04-06T18:13:35.730Z,82.30
2019-04-06T18:18:39.460Z,82.30
2019-04-06T18:23:43.787Z,82.60
2019-04-06T18:28:47.546Z,83.60
2019-04-06T18:33:51.274Z,82.70
2019-04-06T18:39:09.367Z,82.40
2019-04-06T18:44:13.107Z,82.40
2019-04-06T18:49:17.061Z,82.40
2019-04-06T18:54:20.997Z,82.10
2019-04-06T18:59:24.864Z,81.90
2019-04-06T19:04:29.252Z,82.10
2019-04-06T19:09:33.789Z,82.00
2019-04-06T19:14:37.610Z,82.10
2019-04-06T19:19:41.363Z,82.50
2019-04-06T19:24:45.156Z,82.50
2019-04-06T19:29:48.990Z,82.60
2019-04-06T19:34:53.101Z,82.60
2019-04-06T19:39:56.947Z,82.40
2019-04-06T19:45:01.276Z,82.40
2019-04-06T19:50:08.294Z,82.30
2019-04-06T19:55:12.674Z,82.20
2019-04-06T20:00:16.912Z,82.00
2019-04-06T20:05:21.002Z,81.90
2019-04-06T20:10:24.832Z,81.90
2019-04-06T20:15:28.782Z,81.70
2019-04-06T20:20:33.035Z,81.40
2019-04-06T20:25:37.375Z,81.00
2019-04-06T20:30:41.374Z,81.30
2019-04-06T20:35:45.508Z,82.20
2019-04-06T20:40:49.442Z,82.10
2019-04-06T20:45:53.468Z,82.30
2019-04-06T20:50:57.295Z,82.10
2019-04-06T20:56:01.129Z,82.20
2019-04-06T21:01:05.264Z,82.10
2019-04-06T21:06:09.396Z,82.00
2019-04-06T21:11:13.858Z,81.80
2019-04-06T21:16:17.973Z,81.40
2019-04-06T21:21:22.077Z,81.10
2019-04-06T21:26:26.290Z,81.10
2019-04-06T21:31:30.655Z,80.90
2019-04-06T21:36:35.105Z,80.60
2019-04-06T21:41:39.612Z,80.30
2019-04-06T21:46:43.709Z,80.30
2019-04-06T21:51:48.021Z,80.00
2019-04-06T21:56:52.586Z,79.50
2019-04-06T22:01:56.902Z,79.50
2019-04-06T22:07:01.141Z,79.60
2019-04-06T22:12:04.990Z,79.80
2019-04-06T22:17:10.056Z,80.00
2019-04-06T22:22:14.501Z,80.60
2019-04-06T22:27:18.631Z,81.00
2019-04-06T22:32:22.456Z,81.00
2019-04-06T22:37:26.301Z,80.90
2019-04-06T22:42:30.483Z,81.10
2019-04-06T22:47:34.746Z,81.20
2019-04-06T22:52:38.686Z,81.20
2019-04-06T22:57:42.822Z,81.40
2019-04-06T23:03:04.631Z,81.20
2019-04-06T23:08:09.253Z,80.90
2019-04-06T23:13:13.354Z,80.70
2019-04-06T23:18:17.177Z,79.80
2019-04-06T23:23:21.004Z,80.30
2019-04-06T23:28:24.831Z,80.30
2019-04-06T23:33:29.034Z,80.60
2019-04-06T23:38:33.107Z,80.40
2019-04-06T23:43:37.244Z,81.00
2019-04-06T23:48:41.069Z,80.10
2019-04-06T23:53:45.506Z,80.00
2019-04-06T23:58:49.800Z,80.10
